Phnom Penh, Cambodia
Current Conditions -  °F | °C
As of 8:00 PM on Saturday 22 Nov 2014 (Local Time) from VDPP Reporting Station
Scattered Clouds Scattered Clouds  
Wind Chill: 84°   Ceiling: Unl
Heat Index: 91°   Visibility: 6mi
Dew Point: 73°   Wind: 1mph
Humidity: 70%   Direction: 20°NNE
Pressure: 29.8"   Gusts: NA
Location:  11.56°N, 104.92°E
Report Text: VDPP 221300Z 02001KT 9000 SCT017 SCT040 29/23 Q1009
Loading
Personal Weather Stations






























Interactive Weather Map New forecast layout! Learn more

10-Day Weather Forecast

Advertisements
Track Severe Weather on mobile